sensor_id;sensor_type;location;lat;lon;timestamp;temperature;humidity
24286;DHT22;26641;45.416;10.992;2023-06-26T00:00:15;27.20;99.90
24286;DHT22;26641;45.416;10.992;2023-06-26T00:02:41;27.20;99.90
24286;DHT22;26641;45.416;10.992;2023-06-26T00:05:07;27.20;99.90
24286;DHT22;26641;45.416;10.992;2023-06-26T00:07:33;27.20;99.90
24286;DHT22;26641;45.416;10.992;2023-06-26T00:10:04;27.20;99.90
24286;DHT22;26641;45.416;10.992;2023-06-26T00:12:30;27.20;99.90
24286;DHT22;26641;45.416;10.992;2023-06-26T00:14:56;27.20;99.90
24286;DHT22;26641;45.416;10.992;2023-06-26T00:17:22;27.20;99.90
24286;DHT22;26641;45.416;10.992;2023-06-26T00:19:48;27.20;99.90
24286;DHT22;26641;45.416;10.992;2023-06-26T00:22:14;27.20;99.90
24286;DHT22;26641;45.416;10.992;2023-06-26T00:24:40;27.20;99.90
24286;DHT22;26641;45.416;10.992;2023-06-26T00:27:06;27.20;99.90
24286;DHT22;26641;45.416;10.992;2023-06-26T00:29:32;27.20;99.90
24286;DHT22;26641;45.416;10.992;2023-06-26T00:31:58;27.20;99.90
24286;DHT22;26641;45.416;10.992;2023-06-26T00:34:24;27.20;99.90
24286;DHT22;26641;45.416;10.992;2023-06-26T00:36:50;27.20;99.90
24286;DHT22;26641;45.416;10.992;2023-06-26T00:39:15;27.20;99.90
24286;DHT22;26641;45.416;10.992;2023-06-26T00:41:41;27.20;99.90
24286;DHT22;26641;45.416;10.992;2023-06-26T00:44:07;27.20;99.90
24286;DHT22;26641;45.416;10.992;2023-06-26T00:46:33;27.10;99.90
24286;DHT22;26641;45.416;10.992;2023-06-26T00:49:00;27.20;99.90
24286;DHT22;26641;45.416;10.992;2023-06-26T00:51:27;27.20;99.90
24286;DHT22;26641;45.416;10.992;2023-06-26T00:53:53;27.20;99.90
24286;DHT22;26641;45.416;10.992;2023-06-26T00:56:19;27.20;99.90
24286;DHT22;26641;45.416;10.992;2023-06-26T00:58:45;27.20;99.90
24286;DHT22;26641;45.416;10.992;2023-06-26T01:01:11;27.20;99.90
24286;DHT22;26641;45.416;10.992;2023-06-26T01:03:45;27.10;99.90
24286;DHT22;26641;45.416;10.992;2023-06-26T01:06:11;27.10;99.90
24286;DHT22;26641;45.416;10.992;2023-06-26T01:08:38;27.10;99.90
24286;DHT22;26641;45.416;10.992;2023-06-26T01:11:04;27.10;99.90
24286;DHT22;26641;45.416;10.992;2023-06-26T01:13:30;27.10;99.90
24286;DHT22;26641;45.416;10.992;2023-06-26T01:15:59;27.10;99.90
24286;DHT22;26641;45.416;10.992;2023-06-26T01:18:26;27.10;99.90
24286;DHT22;26641;45.416;10.992;2023-06-26T01:20:51;27.10;99.90
24286;DHT22;26641;45.416;10.992;2023-06-26T01:23:38;27.10;99.90
24286;DHT22;26641;45.416;10.992;2023-06-26T01:28:39;27.10;99.90
24286;DHT22;26641;45.416;10.992;2023-06-26T01:31:05;27.10;99.90
24286;DHT22;26641;45.416;10.992;2023-06-26T01:33:32;27.10;99.90
24286;DHT22;26641;45.416;10.992;2023-06-26T01:35:58;27.10;99.90
24286;DHT22;26641;45.416;10.992;2023-06-26T01:38:24;27.10;99.90
24286;DHT22;26641;45.416;10.992;2023-06-26T01:40:51;27.10;99.90
24286;DHT22;26641;45.416;10.992;2023-06-26T01:46:03;27.10;99.90
24286;DHT22;26641;45.416;10.992;2023-06-26T01:48:35;27.10;99.90
24286;DHT22;26641;45.416;10.992;2023-06-26T01:51:03;27.10;99.90
24286;DHT22;26641;45.416;10.992;2023-06-26T01:53:32;27.10;99.90
24286;DHT22;26641;45.416;10.992;2023-06-26T01:56:00;27.10;99.90
24286;DHT22;26641;45.416;10.992;2023-06-26T01:58:28;27.10;99.90
24286;DHT22;26641;45.416;10.992;2023-06-26T02:00:55;27.10;99.90
24286;DHT22;26641;45.416;10.992;2023-06-26T02:03:20;27.10;99.90
24286;DHT22;26641;45.416;10.992;2023-06-26T02:05:46;27.10;99.90
24286;DHT22;26641;45.416;10.992;2023-06-26T02:08:13;27.10;99.90
24286;DHT22;26641;45.416;10.992;2023-06-26T02:10:39;27.10;99.90
24286;DHT22;26641;45.416;10.992;2023-06-26T02:13:05;27.10;99.90
24286;DHT22;26641;45.416;10.992;2023-06-26T02:15:31;27.10;99.90
24286;DHT22;26641;45.416;10.992;2023-06-26T02:17:57;27.10;99.90
24286;DHT22;26641;45.416;10.992;2023-06-26T02:20:23;27.10;99.90
24286;DHT22;26641;45.416;10.992;2023-06-26T02:22:49;27.10;99.90
24286;DHT22;26641;45.416;10.992;2023-06-26T02:25:14;27.10;99.90
24286;DHT22;26641;45.416;10.992;2023-06-26T02:27:40;27.10;99.90
24286;DHT22;26641;45.416;10.992;2023-06-26T02:30:08;27.10;99.90
24286;DHT22;26641;45.416;10.992;2023-06-26T02:32:33;27.10;99.90
24286;DHT22;26641;45.416;10.992;2023-06-26T02:34:59;27.10;99.90
24286;DHT22;26641;45.416;10.992;2023-06-26T02:37:25;27.10;99.90
24286;DHT22;26641;45.416;10.992;2023-06-26T02:39:51;27.10;99.90
24286;DHT22;26641;45.416;10.992;2023-06-26T02:42:17;27.00;99.90
24286;DHT22;26641;45.416;10.992;2023-06-26T02:44:43;27.00;99.90
24286;DHT22;26641;45.416;10.992;2023-06-26T02:47:09;27.00;99.90
24286;DHT22;26641;45.416;10.992;2023-06-26T02:49:35;27.00;99.90
24286;DHT22;26641;45.416;10.992;2023-06-26T02:52:02;27.00;99.90
24286;DHT22;26641;45.416;10.992;2023-06-26T02:54:28;27.00;99.90
24286;DHT22;26641;45.416;10.992;2023-06-26T02:56:54;27.00;99.90
24286;DHT22;26641;45.416;10.992;2023-06-26T02:59:20;27.00;99.90
24286;DHT22;26641;45.416;10.992;2023-06-26T03:01:45;27.00;99.90
24286;DHT22;26641;45.416;10.992;2023-06-26T03:04:12;27.00;99.90
24286;DHT22;26641;45.416;10.992;2023-06-26T03:06:38;27.00;99.90
24286;DHT22;26641;45.416;10.992;2023-06-26T03:09:04;27.00;99.90
24286;DHT22;26641;45.416;10.992;2023-06-26T03:11:30;27.00;99.90
24286;DHT22;26641;45.416;10.992;2023-06-26T03:13:56;27.00;99.90
24286;DHT22;26641;45.416;10.992;2023-06-26T03:16:22;27.00;99.90
24286;DHT22;26641;45.416;10.992;2023-06-26T03:18:48;27.00;99.90
24286;DHT22;26641;45.416;10.992;2023-06-26T03:21:14;27.00;99.90
24286;DHT22;26641;45.416;10.992;2023-06-26T03:23:40;27.00;99.90
24286;DHT22;26641;45.416;10.992;2023-06-26T03:26:05;27.00;99.90
24286;DHT22;26641;45.416;10.992;2023-06-26T03:28:31;26.90;99.90
24286;DHT22;26641;45.416;10.992;2023-06-26T03:30:57;27.00;99.90
24286;DHT22;26641;45.416;10.992;2023-06-26T03:33:23;27.00;99.90
24286;DHT22;26641;45.416;10.992;2023-06-26T03:35:48;27.00;99.90
24286;DHT22;26641;45.416;10.992;2023-06-26T03:38:14;26.90;99.90
24286;DHT22;26641;45.416;10.992;2023-06-26T03:40:40;26.90;99.90
24286;DHT22;26641;45.416;10.992;2023-06-26T03:43:06;26.90;99.90
24286;DHT22;26641;45.416;10.992;2023-06-26T03:45:32;26.90;99.90
24286;DHT22;26641;45.416;10.992;2023-06-26T03:47:58;26.90;99.90
24286;DHT22;26641;45.416;10.992;2023-06-26T03:50:24;26.90;99.90
24286;DHT22;26641;45.416;10.992;2023-06-26T03:52:50;26.90;99.90
24286;DHT22;26641;45.416;10.992;2023-06-26T03:55:17;26.90;99.90
24286;DHT22;26641;45.416;10.992;2023-06-26T03:57:43;26.90;99.90
24286;DHT22;26641;45.416;10.992;2023-06-26T04:00:10;26.90;99.90
24286;DHT22;26641;45.416;10.992;2023-06-26T04:02:37;26.90;99.90
24286;DHT22;26641;45.416;10.992;2023-06-26T04:05:03;26.90;99.90
24286;DHT22;26641;45.416;10.992;2023-06-26T04:07:30;26.90;99.90
24286;DHT22;26641;45.416;10.992;2023-06-26T04:09:56;26.90;99.90
24286;DHT22;26641;45.416;10.992;2023-06-26T04:12:22;26.90;99.90
24286;DHT22;26641;45.416;10.992;2023-06-26T04:14:48;26.90;99.90
24286;DHT22;26641;45.416;10.992;2023-06-26T04:17:14;26.90;99.90
24286;DHT22;26641;45.416;10.992;2023-06-26T04:19:40;26.90;99.90
24286;DHT22;26641;45.416;10.992;2023-06-26T04:22:07;26.80;99.90
24286;DHT22;26641;45.416;10.992;2023-06-26T04:24:32;26.80;99.90
24286;DHT22;26641;45.416;10.992;2023-06-26T04:26:58;26.80;99.90
24286;DHT22;26641;45.416;10.992;2023-06-26T04:29:27;26.80;99.90
24286;DHT22;26641;45.416;10.992;2023-06-26T04:31:53;26.80;99.90
24286;DHT22;26641;45.416;10.992;2023-06-26T04:34:26;26.80;99.90
24286;DHT22;26641;45.416;10.992;2023-06-26T04:36:53;26.80;99.90
24286;DHT22;26641;45.416;10.992;2023-06-26T04:39:19;26.80;99.90
24286;DHT22;26641;45.416;10.992;2023-06-26T04:41:44;26.80;99.90
24286;DHT22;26641;45.416;10.992;2023-06-26T04:44:10;26.80;99.90
24286;DHT22;26641;45.416;10.992;2023-06-26T04:46:36;26.80;99.90
24286;DHT22;26641;45.416;10.992;2023-06-26T04:49:02;26.80;99.90
24286;DHT22;26641;45.416;10.992;2023-06-26T04:51:28;26.80;99.90
24286;DHT22;26641;45.416;10.992;2023-06-26T04:53:54;26.80;99.90
24286;DHT22;26641;45.416;10.992;2023-06-26T04:56:20;26.80;99.90
24286;DHT22;26641;45.416;10.992;2023-06-26T04:58:46;26.80;99.90
24286;DHT22;26641;45.416;10.992;2023-06-26T05:01:11;26.80;99.90
24286;DHT22;26641;45.416;10.992;2023-06-26T05:03:39;26.80;99.90
24286;DHT22;26641;45.416;10.992;2023-06-26T05:06:05;26.80;99.90
24286;DHT22;26641;45.416;10.992;2023-06-26T05:08:30;26.80;99.90
24286;DHT22;26641;45.416;10.992;2023-06-26T05:10:56;26.80;99.90
24286;DHT22;26641;45.416;10.992;2023-06-26T05:13:24;26.80;99.90
24286;DHT22;26641;45.416;10.992;2023-06-26T05:15:50;26.80;99.90
24286;DHT22;26641;45.416;10.992;2023-06-26T05:18:16;26.80;99.90
24286;DHT22;26641;45.416;10.992;2023-06-26T05:20:42;26.80;99.90
24286;DHT22;26641;45.416;10.992;2023-06-26T05:23:10;26.80;99.90
24286;DHT22;26641;45.416;10.992;2023-06-26T05:25:36;26.80;99.90
24286;DHT22;26641;45.416;10.992;2023-06-26T05:28:02;26.70;99.90
24286;DHT22;26641;45.416;10.992;2023-06-26T05:30:30;26.70;99.90
24286;DHT22;26641;45.416;10.992;2023-06-26T05:32:56;26.70;99.90
24286;DHT22;26641;45.416;10.992;2023-06-26T05:35:24;26.70;99.90
24286;DHT22;26641;45.416;10.992;2023-06-26T05:37:51;26.80;99.90
24286;DHT22;26641;45.416;10.992;2023-06-26T05:40:17;26.80;99.90
24286;DHT22;26641;45.416;10.992;2023-06-26T05:42:44;26.80;99.90
24286;DHT22;26641;45.416;10.992;2023-06-26T05:45:11;26.70;99.90
24286;DHT22;26641;45.416;10.992;2023-06-26T05:47:37;26.80;99.90
24286;DHT22;26641;45.416;10.992;2023-06-26T05:50:03;26.70;99.90
24286;DHT22;26641;45.416;10.992;2023-06-26T05:52:29;26.70;99.90
24286;DHT22;26641;45.416;10.992;2023-06-26T05:54:56;26.70;99.90
24286;DHT22;26641;45.416;10.992;2023-06-26T05:57:26;26.70;99.90
24286;DHT22;26641;45.416;10.992;2023-06-26T05:59:52;26.60;99.90
24286;DHT22;26641;45.416;10.992;2023-06-26T06:02:18;26.50;99.90
24286;DHT22;26641;45.416;10.992;2023-06-26T06:04:44;26.50;99.90
24286;DHT22;26641;45.416;10.992;2023-06-26T06:07:10;26.50;99.90
24286;DHT22;26641;45.416;10.992;2023-06-26T06:09:36;26.50;99.90
24286;DHT22;26641;45.416;10.992;2023-06-26T06:12:04;26.50;99.90
24286;DHT22;26641;45.416;10.992;2023-06-26T06:14:30;26.50;99.90
24286;DHT22;26641;45.416;10.992;2023-06-26T06:16:56;26.50;99.90
24286;DHT22;26641;45.416;10.992;2023-06-26T06:19:22;26.50;99.90
24286;DHT22;26641;45.416;10.992;2023-06-26T06:21:48;26.50;99.90
24286;DHT22;26641;45.416;10.992;2023-06-26T06:24:13;26.50;99.90
24286;DHT22;26641;45.416;10.992;2023-06-26T06:26:40;26.50;99.90
24286;DHT22;26641;45.416;10.992;2023-06-26T06:29:06;26.60;99.90
24286;DHT22;26641;45.416;10.992;2023-06-26T06:31:32;26.60;99.90
24286;DHT22;26641;45.416;10.992;2023-06-26T06:33:57;26.60;99.90
24286;DHT22;26641;45.416;10.992;2023-06-26T06:36:23;26.60;99.90
24286;DHT22;26641;45.416;10.992;2023-06-26T06:38:49;26.60;99.90
24286;DHT22;26641;45.416;10.992;2023-06-26T06:41:15;26.60;99.90
24286;DHT22;26641;45.416;10.992;2023-06-26T06:43:41;26.60;99.90
24286;DHT22;26641;45.416;10.992;2023-06-26T06:46:07;26.60;99.90
24286;DHT22;26641;45.416;10.992;2023-06-26T06:48:33;26.60;99.90
24286;DHT22;26641;45.416;10.992;2023-06-26T06:50:59;26.60;99.90
24286;DHT22;26641;45.416;10.992;2023-06-26T06:53:25;26.60;99.90
24286;DHT22;26641;45.416;10.992;2023-06-26T06:55:51;26.60;99.90
24286;DHT22;26641;45.416;10.992;2023-06-26T06:58:17;26.70;99.90
24286;DHT22;26641;45.416;10.992;2023-06-26T07:00:44;26.70;99.90
24286;DHT22;26641;45.416;10.992;2023-06-26T07:03:10;26.70;99.90
24286;DHT22;26641;45.416;10.992;2023-06-26T07:05:35;26.70;99.90
24286;DHT22;26641;45.416;10.992;2023-06-26T07:08:02;26.70;99.90
24286;DHT22;26641;45.416;10.992;2023-06-26T07:10:28;26.70;99.90
24286;DHT22;26641;45.416;10.992;2023-06-26T07:12:54;26.70;99.90
24286;DHT22;26641;45.416;10.992;2023-06-26T07:15:20;26.60;99.90
24286;DHT22;26641;45.416;10.992;2023-06-26T07:17:46;26.60;99.90
24286;DHT22;26641;45.416;10.992;2023-06-26T07:20:16;26.60;99.90
24286;DHT22;26641;45.416;10.992;2023-06-26T07:22:45;26.60;99.90
24286;DHT22;26641;45.416;10.992;2023-06-26T07:25:11;26.60;99.90
24286;DHT22;26641;45.416;10.992;2023-06-26T07:27:37;26.60;99.90
24286;DHT22;26641;45.416;10.992;2023-06-26T07:30:03;26.60;99.90
24286;DHT22;26641;45.416;10.992;2023-06-26T07:32:29;26.60;99.90
24286;DHT22;26641;45.416;10.992;2023-06-26T07:34:55;26.50;99.90
24286;DHT22;26641;45.416;10.992;2023-06-26T07:37:21;26.50;99.90
24286;DHT22;26641;45.416;10.992;2023-06-26T07:39:47;26.60;99.90
24286;DHT22;26641;45.416;10.992;2023-06-26T07:42:13;26.60;99.90
24286;DHT22;26641;45.416;10.992;2023-06-26T07:44:43;26.60;99.90
24286;DHT22;26641;45.416;10.992;2023-06-26T07:47:09;26.60;99.90
24286;DHT22;26641;45.416;10.992;2023-06-26T07:49:35;26.60;99.90
24286;DHT22;26641;45.416;10.992;2023-06-26T07:52:01;26.70;99.90
24286;DHT22;26641;45.416;10.992;2023-06-26T07:54:28;26.70;99.90
24286;DHT22;26641;45.416;10.992;2023-06-26T07:56:59;26.70;99.90
24286;DHT22;26641;45.416;10.992;2023-06-26T07:59:25;26.70;99.90
24286;DHT22;26641;45.416;10.992;2023-06-26T08:01:52;26.70;99.90
24286;DHT22;26641;45.416;10.992;2023-06-26T08:04:19;26.70;99.90
24286;DHT22;26641;45.416;10.992;2023-06-26T08:06:49;26.80;99.90
24286;DHT22;26641;45.416;10.992;2023-06-26T08:09:16;26.80;99.90
24286;DHT22;26641;45.416;10.992;2023-06-26T08:11:45;26.70;99.90
24286;DHT22;26641;45.416;10.992;2023-06-26T08:14:11;26.70;99.90
24286;DHT22;26641;45.416;10.992;2023-06-26T08:16:40;26.70;99.90
24286;DHT22;26641;45.416;10.992;2023-06-26T08:19:06;26.70;99.90
24286;DHT22;26641;45.416;10.992;2023-06-26T08:21:32;26.70;99.90
24286;DHT22;26641;45.416;10.992;2023-06-26T08:23:58;26.70;99.90
24286;DHT22;26641;45.416;10.992;2023-06-26T08:26:24;26.70;99.90
24286;DHT22;26641;45.416;10.992;2023-06-26T08:28:50;26.70;99.90
24286;DHT22;26641;45.416;10.992;2023-06-26T08:31:16;26.70;99.90
24286;DHT22;26641;45.416;10.992;2023-06-26T08:33:42;26.70;99.90
24286;DHT22;26641;45.416;10.992;2023-06-26T08:36:08;26.70;99.90
24286;DHT22;26641;45.416;10.992;2023-06-26T08:38:34;26.70;99.90
24286;DHT22;26641;45.416;10.992;2023-06-26T08:41:00;26.70;99.90
24286;DHT22;26641;45.416;10.992;2023-06-26T08:43:27;26.70;99.90
24286;DHT22;26641;45.416;10.992;2023-06-26T08:45:53;26.70;99.90
24286;DHT22;26641;45.416;10.992;2023-06-26T08:48:20;26.70;99.90
24286;DHT22;26641;45.416;10.992;2023-06-26T08:50:49;26.80;99.90
24286;DHT22;26641;45.416;10.992;2023-06-26T08:53:32;26.80;99.90
24286;DHT22;26641;45.416;10.992;2023-06-26T08:55:59;26.80;99.90
24286;DHT22;26641;45.416;10.992;2023-06-26T08:58:25;26.80;99.90
24286;DHT22;26641;45.416;10.992;2023-06-26T09:00:51;26.80;99.90
24286;DHT22;26641;45.416;10.992;2023-06-26T09:03:18;26.80;99.90
24286;DHT22;26641;45.416;10.992;2023-06-26T09:05:44;26.80;99.90
24286;DHT22;26641;45.416;10.992;2023-06-26T09:08:10;26.80;99.90
24286;DHT22;26641;45.416;10.992;2023-06-26T09:10:35;26.80;99.90
24286;DHT22;26641;45.416;10.992;2023-06-26T09:13:02;26.80;99.90
24286;DHT22;26641;45.416;10.992;2023-06-26T09:15:36;26.80;99.90
24286;DHT22;26641;45.416;10.992;2023-06-26T09:18:05;26.80;99.90
24286;DHT22;26641;45.416;10.992;2023-06-26T09:20:31;26.80;99.90
24286;DHT22;26641;45.416;10.992;2023-06-26T09:23:00;26.80;99.90
24286;DHT22;26641;45.416;10.992;2023-06-26T09:25:26;26.80;99.90
24286;DHT22;26641;45.416;10.992;2023-06-26T09:27:52;26.80;99.90
24286;DHT22;26641;45.416;10.992;2023-06-26T09:30:17;26.80;99.90
24286;DHT22;26641;45.416;10.992;2023-06-26T09:32:44;26.80;99.90
24286;DHT22;26641;45.416;10.992;2023-06-26T09:35:10;26.80;99.90
24286;DHT22;26641;45.416;10.992;2023-06-26T09:37:39;26.80;99.90
24286;DHT22;26641;45.416;10.992;2023-06-26T09:40:05;26.90;99.90
24286;DHT22;26641;45.416;10.992;2023-06-26T09:42:32;26.90;99.90
24286;DHT22;26641;45.416;10.992;2023-06-26T09:44:58;26.90;99.90
24286;DHT22;26641;45.416;10.992;2023-06-26T09:47:24;26.90;99.90
24286;DHT22;26641;45.416;10.992;2023-06-26T09:49:50;26.90;99.90
24286;DHT22;26641;45.416;10.992;2023-06-26T09:52:17;26.90;99.90
24286;DHT22;26641;45.416;10.992;2023-06-26T09:54:43;26.90;99.90
24286;DHT22;26641;45.416;10.992;2023-06-26T09:57:11;26.90;99.90
24286;DHT22;26641;45.416;10.992;2023-06-26T09:59:37;26.90;99.90
24286;DHT22;26641;45.416;10.992;2023-06-26T10:02:03;26.90;99.90
24286;DHT22;26641;45.416;10.992;2023-06-26T10:04:29;26.90;99.90
24286;DHT22;26641;45.416;10.992;2023-06-26T10:06:55;26.90;99.90
24286;DHT22;26641;45.416;10.992;2023-06-26T10:09:22;26.90;99.90
24286;DHT22;26641;45.416;10.992;2023-06-26T10:12:00;26.90;99.90
24286;DHT22;26641;45.416;10.992;2023-06-26T10:14:27;26.90;99.90
24286;DHT22;26641;45.416;10.992;2023-06-26T10:16:55;27.00;99.90
24286;DHT22;26641;45.416;10.992;2023-06-26T10:19:22;27.00;99.90
24286;DHT22;26641;45.416;10.992;2023-06-26T10:21:52;27.00;99.90
24286;DHT22;26641;45.416;10.992;2023-06-26T10:24:18;27.00;99.90
24286;DHT22;26641;45.416;10.992;2023-06-26T10:26:45;27.00;99.90
24286;DHT22;26641;45.416;10.992;2023-06-26T10:29:15;27.00;99.90
24286;DHT22;26641;45.416;10.992;2023-06-26T10:31:42;27.00;99.90
24286;DHT22;26641;45.416;10.992;2023-06-26T10:34:10;27.00;99.90
24286;DHT22;26641;45.416;10.992;2023-06-26T10:36:36;27.00;99.90
24286;DHT22;26641;45.416;10.992;2023-06-26T10:39:03;27.00;99.90
24286;DHT22;26641;45.416;10.992;2023-06-26T10:41:36;27.00;99.90
24286;DHT22;26641;45.416;10.992;2023-06-26T10:46:27;27.00;99.90
24286;DHT22;26641;45.416;10.992;2023-06-26T10:48:59;27.00;99.90
24286;DHT22;26641;45.416;10.992;2023-06-26T10:51:25;27.10;99.90
24286;DHT22;26641;45.416;10.992;2023-06-26T10:53:54;27.00;99.90
24286;DHT22;26641;45.416;10.992;2023-06-26T10:56:20;27.10;99.90
24286;DHT22;26641;45.416;10.992;2023-06-26T10:58:47;27.10;99.90
24286;DHT22;26641;45.416;10.992;2023-06-26T11:01:23;27.10;99.90
24286;DHT22;26641;45.416;10.992;2023-06-26T11:04:05;27.10;99.90
24286;DHT22;26641;45.416;10.992;2023-06-26T11:06:31;27.10;99.90
24286;DHT22;26641;45.416;10.992;2023-06-26T11:09:07;27.10;99.90
24286;DHT22;26641;45.416;10.992;2023-06-26T11:14:17;27.10;99.90
24286;DHT22;26641;45.416;10.992;2023-06-26T11:16:44;27.10;99.90
24286;DHT22;26641;45.416;10.992;2023-06-26T11:19:09;27.10;99.90
24286;DHT22;26641;45.416;10.992;2023-06-26T11:21:37;27.10;99.90
24286;DHT22;26641;45.416;10.992;2023-06-26T11:24:04;27.10;99.90
24286;DHT22;26641;45.416;10.992;2023-06-26T11:26:37;27.10;99.90
24286;DHT22;26641;45.416;10.992;2023-06-26T11:29:03;27.10;99.90
24286;DHT22;26641;45.416;10.992;2023-06-26T11:31:29;27.10;99.90
24286;DHT22;26641;45.416;10.992;2023-06-26T11:33:59;27.10;99.90
24286;DHT22;26641;45.416;10.992;2023-06-26T11:36:25;27.10;99.90
24286;DHT22;26641;45.416;10.992;2023-06-26T11:39:01;27.20;99.90
24286;DHT22;26641;45.416;10.992;2023-06-26T11:41:31;27.20;99.90
24286;DHT22;26641;45.416;10.992;2023-06-26T11:44:00;27.20;99.90
24286;DHT22;26641;45.416;10.992;2023-06-26T11:46:26;27.20;99.90
24286;DHT22;26641;45.416;10.992;2023-06-26T11:48:52;27.20;99.90
24286;DHT22;26641;45.416;10.992;2023-06-26T11:51:17;27.20;99.90
24286;DHT22;26641;45.416;10.992;2023-06-26T11:53:43;27.20;99.90
24286;DHT22;26641;45.416;10.992;2023-06-26T11:56:10;27.20;99.90
24286;DHT22;26641;45.416;10.992;2023-06-26T11:58:36;27.20;99.90
24286;DHT22;26641;45.416;10.992;2023-06-26T12:01:02;27.20;99.90
24286;DHT22;26641;45.416;10.992;2023-06-26T12:03:28;27.20;99.90
24286;DHT22;26641;45.416;10.992;2023-06-26T12:05:55;27.20;99.90
24286;DHT22;26641;45.416;10.992;2023-06-26T12:08:21;27.20;99.90
24286;DHT22;26641;45.416;10.992;2023-06-26T12:10:47;27.20;99.90
24286;DHT22;26641;45.416;10.992;2023-06-26T12:13:13;27.20;99.90
24286;DHT22;26641;45.416;10.992;2023-06-26T12:15:39;27.20;99.90
24286;DHT22;26641;45.416;10.992;2023-06-26T12:18:08;27.20;99.90
24286;DHT22;26641;45.416;10.992;2023-06-26T12:20:39;27.30;99.90
24286;DHT22;26641;45.416;10.992;2023-06-26T12:23:05;27.30;99.90
24286;DHT22;26641;45.416;10.992;2023-06-26T12:25:36;27.30;99.90
24286;DHT22;26641;45.416;10.992;2023-06-26T12:28:03;27.30;99.90
24286;DHT22;26641;45.416;10.992;2023-06-26T12:30:29;27.20;99.90
24286;DHT22;26641;45.416;10.992;2023-06-26T12:32:54;27.30;99.90
24286;DHT22;26641;45.416;10.992;2023-06-26T12:35:21;27.30;99.90
24286;DHT22;26641;45.416;10.992;2023-06-26T12:37:47;27.30;99.90
24286;DHT22;26641;45.416;10.992;2023-06-26T12:40:19;27.30;99.90
24286;DHT22;26641;45.416;10.992;2023-06-26T12:42:47;27.30;99.90
24286;DHT22;26641;45.416;10.992;2023-06-26T12:45:13;27.30;99.90
24286;DHT22;26641;45.416;10.992;2023-06-26T12:47:39;27.30;99.90
24286;DHT22;26641;45.416;10.992;2023-06-26T12:50:06;27.30;99.90
24286;DHT22;26641;45.416;10.992;2023-06-26T12:52:32;27.30;99.90
24286;DHT22;26641;45.416;10.992;2023-06-26T12:54:58;27.30;99.90
24286;DHT22;26641;45.416;10.992;2023-06-26T12:57:24;27.30;99.90
24286;DHT22;26641;45.416;10.992;2023-06-26T12:59:49;27.30;99.90
24286;DHT22;26641;45.416;10.992;2023-06-26T13:02:15;27.30;99.90
24286;DHT22;26641;45.416;10.992;2023-06-26T13:04:40;27.30;99.90
24286;DHT22;26641;45.416;10.992;2023-06-26T13:07:06;27.30;99.90
24286;DHT22;26641;45.416;10.992;2023-06-26T13:09:32;27.30;99.90
24286;DHT22;26641;45.416;10.992;2023-06-26T13:11:59;27.30;99.90
24286;DHT22;26641;45.416;10.992;2023-06-26T13:14:25;27.30;99.90
24286;DHT22;26641;45.416;10.992;2023-06-26T13:16:51;27.30;99.90
24286;DHT22;26641;45.416;10.992;2023-06-26T13:19:17;27.30;99.90
24286;DHT22;26641;45.416;10.992;2023-06-26T13:21:43;27.30;99.90
24286;DHT22;26641;45.416;10.992;2023-06-26T13:24:09;27.30;99.90
24286;DHT22;26641;45.416;10.992;2023-06-26T13:26:35;27.40;99.90
24286;DHT22;26641;45.416;10.992;2023-06-26T13:29:00;27.40;99.90
24286;DHT22;26641;45.416;10.992;2023-06-26T13:31:26;27.40;99.90
24286;DHT22;26641;45.416;10.992;2023-06-26T13:33:51;27.30;99.90
24286;DHT22;26641;45.416;10.992;2023-06-26T13:36:17;27.40;99.90
24286;DHT22;26641;45.416;10.992;2023-06-26T13:38:44;27.30;99.90
24286;DHT22;26641;45.416;10.992;2023-06-26T13:41:10;27.40;99.90
24286;DHT22;26641;45.416;10.992;2023-06-26T13:43:35;27.40;99.90
24286;DHT22;26641;45.416;10.992;2023-06-26T13:46:01;27.40;99.90
24286;DHT22;26641;45.416;10.992;2023-06-26T13:48:28;27.40;99.90
24286;DHT22;26641;45.416;10.992;2023-06-26T13:50:53;27.40;99.90
24286;DHT22;26641;45.416;10.992;2023-06-26T13:53:19;27.40;99.90
24286;DHT22;26641;45.416;10.992;2023-06-26T13:55:45;27.40;99.90
24286;DHT22;26641;45.416;10.992;2023-06-26T13:58:11;27.40;99.90
24286;DHT22;26641;45.416;10.992;2023-06-26T14:00:38;27.40;99.90
24286;DHT22;26641;45.416;10.992;2023-06-26T14:03:04;27.40;99.90
24286;DHT22;26641;45.416;10.992;2023-06-26T14:05:32;27.40;99.90
24286;DHT22;26641;45.416;10.992;2023-06-26T14:07:58;27.40;99.90
24286;DHT22;26641;45.416;10.992;2023-06-26T14:10:24;27.40;99.90
24286;DHT22;26641;45.416;10.992;2023-06-26T14:12:50;27.40;99.90
24286;DHT22;26641;45.416;10.992;2023-06-26T14:15:16;27.40;99.90
24286;DHT22;26641;45.416;10.992;2023-06-26T14:17:42;27.40;99.90
24286;DHT22;26641;45.416;10.992;2023-06-26T14:20:08;27.50;99.90
24286;DHT22;26641;45.416;10.992;2023-06-26T14:22:41;27.50;99.90
24286;DHT22;26641;45.416;10.992;2023-06-26T14:25:08;27.50;99.90
24286;DHT22;26641;45.416;10.992;2023-06-26T14:27:34;27.50;99.90
24286;DHT22;26641;45.416;10.992;2023-06-26T14:30:00;27.40;99.90
24286;DHT22;26641;45.416;10.992;2023-06-26T14:32:29;27.40;99.90
24286;DHT22;26641;45.416;10.992;2023-06-26T14:34:55;27.50;99.90
24286;DHT22;26641;45.416;10.992;2023-06-26T14:37:21;27.40;99.90
24286;DHT22;26641;45.416;10.992;2023-06-26T14:39:47;27.40;99.90
24286;DHT22;26641;45.416;10.992;2023-06-26T14:42:13;27.50;99.90
24286;DHT22;26641;45.416;10.992;2023-06-26T14:44:38;27.50;99.90
24286;DHT22;26641;45.416;10.992;2023-06-26T14:47:04;27.50;99.90
24286;DHT22;26641;45.416;10.992;2023-06-26T14:49:30;27.50;99.90
24286;DHT22;26641;45.416;10.992;2023-06-26T14:51:56;27.50;99.90
24286;DHT22;26641;45.416;10.992;2023-06-26T14:54:22;27.50;99.90
24286;DHT22;26641;45.416;10.992;2023-06-26T14:56:48;27.50;99.90
24286;DHT22;26641;45.416;10.992;2023-06-26T14:59:14;27.50;99.90
24286;DHT22;26641;45.416;10.992;2023-06-26T15:01:39;27.50;99.90
24286;DHT22;26641;45.416;10.992;2023-06-26T15:04:06;27.50;99.90
24286;DHT22;26641;45.416;10.992;2023-06-26T15:06:32;27.50;99.90
24286;DHT22;26641;45.416;10.992;2023-06-26T15:08:58;27.50;99.90
24286;DHT22;26641;45.416;10.992;2023-06-26T15:11:23;27.50;99.90
24286;DHT22;26641;45.416;10.992;2023-06-26T15:13:49;27.50;99.90
24286;DHT22;26641;45.416;10.992;2023-06-26T15:16:16;27.50;99.90
24286;DHT22;26641;45.416;10.992;2023-06-26T15:18:41;27.50;99.90
24286;DHT22;26641;45.416;10.992;2023-06-26T15:21:07;27.50;99.90